aviador You're here:

LFLL Decoded Metar

LYON ST. EXUPERY in FRANCE
Report Time2017-10-22 06:30:00
UTC Time2017-10-22 06:36:43
Flight Rules vfr VFR
Wind200° at 04 kt
W.Decomp.*RWY 18: 3.8 kt HW 1.3 kt RCW
W.Rank200° ranks 13
Current wind is below 200° avg. (9.1)
Visibility9999 m
Phenomena:N/A
Clouds:Few 036 Hf
Scattered 110 Hf
Expected CloudBase > 1,600 ft AGL from Temp-Dew spread
CeilingNone
Temp10°C (ISA -3)
Dew Point06°C (76% RH)
AAT7.6°C
QNH1023 hPa
Density Alt167 ft
Elevation787 ft
Report Wrong Elevation
Raw Report
METAR LFLL 220630Z 20004KT 100V260 9999 FEW036 SCT110 10/06 Q1023
NOSIG=

Extra information for LFLL:More info

Metar Taf Metar & Taf Last 4 Metars F.Rules Stats Wind Profile Meteogram Temp Stats Airport Information Weather charts Add Link Nearby VenuesMetar ALERT Operation Metar Decoded Social comments